Time;durP1;ratioP1;P1;durP2;ratioP2;P2;SDS_P1;SDS_P2;PMS_P1;PMS_P2;Temp;Humidity;BMP_temperature;BMP_pressure;BME280_temperature;BME280_humidity;BME280_pressure;Samples;Min_cycle;Max_cycle;Signal;HPM_P1;HPM_P2
2022/01/30 00:00:40;;;;;;;27.92;4.70;;;8.00;74.30;;;;;;2367128;56;21201;-74
2022/01/30 00:03:07;;;;;;;31.52;5.00;;;7.90;75.10;;;;;;2374876;56;21129;-74
2022/01/30 00:05:34;;;;;;;32.60;7.65;;;7.80;75.30;;;;;;2375221;56;21102;-74
2022/01/30 00:08:02;;;;;;;35.17;5.78;;;7.70;75.60;;;;;;2375268;56;21109;-74
2022/01/30 00:10:31;;;;;;;48.70;7.07;;;7.70;76.00;;;;;;2374639;56;21114;-74
2022/01/30 00:13:01;;;;;;;65.28;7.47;;;7.70;76.50;;;;;;2375263;56;21050;-74
2022/01/30 00:15:38;;;;;;;62.13;8.02;;;7.60;76.80;;;;;;2375185;56;21114;-73
2022/01/30 00:18:14;;;;;;;58.17;8.55;;;7.60;76.90;;;;;;2375118;56;21019;-74
2022/01/30 00:20:45;;;;;;;52.85;8.48;;;7.50;77.30;;;;;;2374813;56;21150;-74
2022/01/30 00:23:17;;;;;;;50.28;8.82;;;7.50;77.40;;;;;;2374967;56;21047;-74
2022/01/30 00:25:49;;;;;;;54.90;8.48;;;7.50;77.50;;;;;;2375436;56;21036;-74
2022/01/30 00:30:52;;;;;;;58.50;10.43;;;7.50;77.10;;;;;;2314349;57;27935;-74
2022/01/30 00:33:19;;;;;;;51.35;9.40;;;7.40;78.80;;;;;;2346769;57;21061;-74
2022/01/30 00:35:46;;;;;;;43.92;7.35;;;7.50;77.00;;;;;;2347201;57;21169;-74
2022/01/30 00:38:16;;;;;;;62.47;7.45;;;7.50;76.50;;;;;;2347624;57;21592;-74
2022/01/30 00:40:44;;;;;;;56.47;6.90;;;7.50;75.20;;;;;;2347053;57;21065;-74
2022/01/30 00:43:11;;;;;;;38.33;6.62;;;7.40;75.40;;;;;;2347355;57;21038;-74
2022/01/30 00:45:39;;;;;;;23.77;4.12;;;7.50;74.20;;;;;;2346310;57;21694;-74
2022/01/30 00:48:06;;;;;;;22.33;3.85;;;7.50;73.40;;;;;;2347105;57;21054;-74
2022/01/30 00:50:34;;;;;;;24.70;4.47;;;7.50;72.70;;;;;;2346990;57;21120;-74
2022/01/30 00:53:02;;;;;;;29.67;5.15;;;7.40;72.80;;;;;;2347192;57;21117;-74
2022/01/30 00:55:31;;;;;;;28.80;5.28;;;7.40;72.90;;;;;;2347732;57;21026;-73
2022/01/30 00:58:00;;;;;;;27.62;4.70;;;7.40;73.30;;;;;;2347480;57;21105;-74
2022/01/30 01:00:27;;;;;;;31.10;5.65;;;7.40;72.90;;;;;;2347045;57;21659;-74
2022/01/30 01:02:55;;;;;;;21.75;4.43;;;7.40;71.90;;;;;;2347310;57;21062;-74
2022/01/30 01:05:23;;;;;;;22.90;4.32;;;7.40;71.70;;;;;;2347437;57;21093;-74
2022/01/30 01:07:52;;;;;;;24.33;5.05;;;7.40;71.50;;;;;;2347318;57;21030;-74
2022/01/30 01:10:29;;;;;;;24.33;5.22;;;7.40;71.20;;;;;;2347258;57;21046;-74
2022/01/30 01:13:12;;;;;;;31.12;6.05;;;7.40;71.30;;;;;;2347494;57;21092;-74
2022/01/30 01:23:59;;;;;;;35.17;6.20;;;7.50;71.30;;;;;;2346893;53;21001;-74
2022/01/30 01:26:27;;;;;;;47.47;7.00;;;7.40;70.50;;;;;;2347609;57;21035;-74
2022/01/30 01:28:55;;;;;;;38.22;5.97;;;7.50;70.80;;;;;;2346942;57;21124;-73
2022/01/30 01:31:23;;;;;;;33.08;6.00;;;7.50;70.30;;;;;;2347313;57;21085;-73
2022/01/30 01:34:05;;;;;;;40.00;6.22;;;7.50;70.10;;;;;;2346978;57;21026;-74
2022/01/30 01:36:33;;;;;;;32.72;5.80;;;7.40;70.30;;;;;;2347861;57;21060;-74
2022/01/30 01:39:00;;;;;;;36.08;8.50;;;7.50;71.40;;;;;;2347063;57;21096;-74
2022/01/30 01:41:29;;;;;;;42.72;8.25;;;7.50;71.60;;;;;;2346748;57;21046;-73
2022/01/30 01:43:56;;;;;;;34.78;6.03;;;7.50;71.80;;;;;;2346740;57;21037;-74
2022/01/30 01:46:27;;;;;;;38.00;5.72;;;7.60;71.80;;;;;;2346393;57;21038;-73
2022/01/30 01:48:55;;;;;;;42.55;7.20;;;7.60;71.10;;;;;;2346145;57;21057;-73
2022/01/30 01:51:24;;;;;;;44.38;7.25;;;7.60;71.30;;;;;;2346047;57;21062;-74
2022/01/30 01:53:56;;;;;;;37.47;6.82;;;7.60;71.50;;;;;;2346373;57;21177;-74
2022/01/30 01:56:23;;;;;;;39.85;5.85;;;7.50;71.70;;;;;;2346797;57;21114;-74
2022/01/30 01:58:51;;;;;;;29.30;5.95;;;7.50;72.10;;;;;;2345744;57;21065;-73
2022/01/30 02:01:18;;;;;;;26.95;5.37;;;7.40;72.20;;;;;;2346396;57;21046;-73
2022/01/30 02:03:46;;;;;;;28.42;5.45;;;7.40;71.70;;;;;;2346173;57;21077;-73
2022/01/30 02:06:17;;;;;;;31.35;6.47;;;7.40;71.70;;;;;;2346432;57;21045;-73
2022/01/30 02:08:49;;;;;;;28.62;5.65;;;7.40;71.60;;;;;;2345870;57;21014;-73
2022/01/30 02:11:28;;;;;;;28.65;5.82;;;7.40;71.60;;;;;;2346407;57;21041;-73
2022/01/30 02:25:35;;;;;;;33.28;5.15;;;7.30;73.80;;;;;;2346295;53;21006;-73
2022/01/30 02:28:08;;;;;;;35.58;4.97;;;7.20;73.20;;;;;;2346449;57;21062;-73
2022/01/30 02:30:39;;;;;;;39.78;5.95;;;7.30;72.50;;;;;;2345933;57;21030;-73
2022/01/30 02:33:07;;;;;;;28.60;4.97;;;7.20;71.10;;;;;;2346498;57;21105;-73
2022/01/30 02:35:34;;;;;;;30.23;4.93;;;7.30;71.00;;;;;;2346359;57;21548;-73
2022/01/30 02:38:02;;;;;;;25.45;6.00;;;7.30;70.00;;;;;;2346389;57;21589;-73
2022/01/30 02:40:32;;;;;;;24.65;5.03;;;7.30;69.40;;;;;;2345975;57;21129;-73
2022/01/30 02:43:00;;;;;;;34.38;5.07;;;7.30;68.70;;;;;;2400984;53;21045;-73
2022/01/30 02:45:31;;;;;;;33.72;7.20;;;7.30;68.40;;;;;;2346353;57;21041;-73
2022/01/30 02:48:12;;;;;;;29.12;4.35;;;7.30;68.30;;;;;;2345159;57;21105;-73
2022/01/30 02:50:51;;;;;;;43.65;6.22;;;7.30;68.30;;;;;;2345873;57;21089;-73
2022/01/30 02:53:24;;;;;;;29.92;6.53;;;7.30;68.00;;;;;;2346261;57;21046;-73
2022/01/30 02:55:51;;;;;;;;;;;7.30;67.80;;;;;;2349861;57;22106;-73
2022/01/30 02:58:18;;;;;;;39.15;5.50;;;7.40;67.10;;;;;;2346411;57;20070;-74
2022/01/30 03:00:45;;;;;;;37.00;6.85;;;7.40;68.20;;;;;;2345987;57;21058;-73
2022/01/30 03:03:13;;;;;;;43.25;5.82;;;7.30;68.30;;;;;;2346375;57;21050;-73
2022/01/30 03:05:40;;;;;;;26.67;5.72;;;7.30;68.20;;;;;;2346111;57;21105;-73
2022/01/30 03:08:07;;;;;;;37.38;8.45;;;7.40;68.40;;;;;;2346515;57;21057;-74
2022/01/30 03:10:34;;;;;;;40.95;6.65;;;7.30;67.70;;;;;;2346046;57;21034;-73
2022/01/30 03:13:02;;;;;;;41.03;6.70;;;7.40;67.80;;;;;;2346373;57;21066;-73
2022/01/30 03:15:29;;;;;;;33.10;5.82;;;7.40;67.60;;;;;;2346042;57;21695;-74
2022/01/30 03:17:56;;;;;;;37.28;6.43;;;7.40;66.80;;;;;;2387172;53;21042;-74
2022/01/30 03:20:23;;;;;;;30.77;5.87;;;7.50;66.60;;;;;;2345954;57;21125;-73
2022/01/30 03:22:51;;;;;;;37.55;7.22;;;7.50;66.40;;;;;;2346616;57;21101;-74
2022/01/30 03:25:18;;;;;;;36.25;6.45;;;7.50;66.00;;;;;;2345213;57;21049;-74
2022/01/30 03:27:51;;;;;;;35.85;5.85;;;7.60;66.10;;;;;;2346383;57;21118;-74
2022/01/30 03:30:25;;;;;;;52.90;7.30;;;7.50;65.80;;;;;;2346139;57;21124;-73
2022/01/30 03:32:53;;;;;;;32.17;4.80;;;7.50;65.20;;;;;;2346401;57;21148;-74
2022/01/30 03:35:21;;;;;;;40.88;7.90;;;7.50;65.30;;;;;;2345778;57;21101;-74
2022/01/30 03:37:48;;;;;;;45.17;6.50;;;7.50;64.60;;;;;;2346204;57;21046;-74
2022/01/30 03:40:15;;;;;;;22.27;6.53;;;7.50;64.10;;;;;;2346075;57;21058;-74
2022/01/30 03:42:42;;;;;;;19.65;5.00;;;7.60;64.40;;;;;;2346443;57;21029;-73
2022/01/30 03:45:10;;;;;;;32.25;5.62;;;7.60;63.70;;;;;;2346104;57;21145;-74
2022/01/30 03:47:38;;;;;;;36.15;5.78;;;7.60;64.00;;;;;;2346435;57;21054;-74
2022/01/30 03:50:06;;;;;;;38.00;6.30;;;7.60;64.10;;;;;;2345656;57;21030;-74
2022/01/30 03:52:34;;;;;;;27.65;5.07;;;7.60;63.80;;;;;;2346500;57;21041;-74
2022/01/30 03:55:01;;;;;;;27.98;6.25;;;7.60;63.80;;;;;;2346453;57;21125;-73
2022/01/30 03:57:28;;;;;;;30.75;6.28;;;7.60;63.90;;;;;;2346623;57;21536;-74
2022/01/30 03:59:55;;;;;;;34.83;7.68;;;7.60;64.50;;;;;;2346074;57;21135;-74
2022/01/30 04:02:23;;;;;;;36.95;7.53;;;7.70;64.80;;;;;;2346040;57;21058;-74
2022/01/30 04:04:50;;;;;;;29.98;5.80;;;7.70;65.40;;;;;;2362992;53;21544;-74
2022/01/30 04:07:17;;;;;;;46.90;7.05;;;7.70;65.00;;;;;;2346303;57;21033;-73
2022/01/30 04:09:46;;;;;;;39.38;6.28;;;7.70;64.50;;;;;;2346012;57;21029;-74
2022/01/30 04:12:15;;;;;;;44.97;5.82;;;7.70;64.80;;;;;;2356742;52;70612;-82
2022/01/30 04:14:43;;;;;;;26.50;5.45;;;7.80;65.10;;;;;;2360389;57;21032;-83
2022/01/30 04:17:11;;;;;;;38.90;7.15;;;7.80;65.50;;;;;;2361492;57;21044;-82
2022/01/30 04:19:39;;;;;;;33.92;6.60;;;7.70;65.20;;;;;;2360207;57;21033;-81
2022/01/30 04:22:06;;;;;;;40.25;6.18;;;7.70;64.90;;;;;;2364835;57;21101;-82
2022/01/30 04:24:33;;;;;;;33.55;6.47;;;7.60;65.00;;;;;;2616038;53;21082;-83
2022/01/30 04:27:00;;;;;;;33.17;6.85;;;7.70;65.00;;;;;;2366161;57;21054;-83
2022/01/30 04:29:29;;;;;;;43.65;6.20;;;7.60;64.90;;;;;;2365002;56;21033;-84
2022/01/30 04:31:57;;;;;;;35.65;6.32;;;7.60;64.90;;;;;;2365732;57;21041;-85
2022/01/30 04:34:26;;;;;;;28.95;4.95;;;7.70;65.50;;;;;;2616718;53;21049;-84
2022/01/30 04:37:01;;;;;;;48.15;6.00;;;7.70;67.20;;;;;;2365258;57;21061;-84
2022/01/30 04:39:50;;;;;;;34.33;6.55;;;7.70;66.80;;;;;;2364795;56;21060;-82
2022/01/30 04:51:58;;;;;;;25.98;5.47;;;7.80;67.50;;;;;;2616428;53;21033;-82
2022/01/30 04:57:37;;;;;;;35.45;6.53;;;7.60;66.40;;;;;;2364547;57;20985;-82
2022/01/30 05:00:23;;;;;;;29.40;4.68;;;7.60;66.70;;;;;;2616555;53;21029;-83
2022/01/30 05:02:58;;;;;;;36.17;5.53;;;7.50;66.80;;;;;;2366649;57;21060;-84
2022/01/30 05:05:53;;;;;;;41.33;6.18;;;7.50;66.70;;;;;;2616779;53;21085;-83
2022/01/30 05:08:21;;;;;;;29.77;4.47;;;7.50;66.70;;;;;;2616714;53;21053;-81
2022/01/30 05:10:48;;;;;;;28.83;4.90;;;7.40;66.70;;;;;;2369808;56;21061;-82
2022/01/30 05:13:20;;;;;;;23.52;4.75;;;7.40;66.60;;;;;;2657933;52;21125;-82
2022/01/30 05:15:48;;;;;;;27.77;5.18;;;7.40;66.60;;;;;;2657123;52;21050;-83
2022/01/30 05:18:19;;;;;;;20.15;5.18;;;7.40;66.90;;;;;;2398635;56;21101;-83
2022/01/30 05:20:47;;;;;;;25.85;5.07;;;7.40;67.20;;;;;;2461859;53;67639;-75
2022/01/30 05:23:16;;;;;;;25.83;6.15;;;7.40;66.90;;;;;;2617887;53;21107;-75
2022/01/30 05:25:46;;;;;;;36.20;7.80;;;7.40;66.90;;;;;;2366917;56;21060;-74
2022/01/30 05:28:14;;;;;;;50.78;9.52;;;7.40;67.10;;;;;;2367894;56;21529;-75
2022/01/30 05:30:43;;;;;;;31.83;6.93;;;7.40;67.60;;;;;;2370105;56;21037;-75
2022/01/30 05:33:12;;;;;;;31.25;6.37;;;7.40;67.70;;;;;;2372130;56;21116;-74
2022/01/30 05:35:39;;;;;;;31.92;6.12;;;7.40;67.80;;;;;;2372061;56;21105;-74
2022/01/30 05:38:07;;;;;;;31.02;5.87;;;7.50;67.80;;;;;;2371949;56;21045;-74
2022/01/30 05:40:36;;;;;;;28.58;5.43;;;7.50;68.10;;;;;;2371326;56;21041;-74
2022/01/30 05:43:05;;;;;;;28.00;5.55;;;7.50;67.70;;;;;;2371892;56;21041;-75
2022/01/30 05:45:37;;;;;;;29.17;5.28;;;7.50;67.40;;;;;;2372105;56;21025;-75
2022/01/30 05:48:10;;;;;;;39.22;7.15;;;7.50;67.70;;;;;;2371702;56;21112;-75
2022/01/30 05:50:37;;;;;;;;;;;7.50;67.40;;;;;;2374219;56;21044;-75
2022/01/30 05:53:05;;;;;;;33.20;5.62;;;7.50;67.60;;;;;;2371946;56;20065;-74
2022/01/30 05:55:32;;;;;;;34.42;6.47;;;7.50;67.00;;;;;;2371362;56;21101;-75
2022/01/30 05:58:00;;;;;;;39.90;6.12;;;7.50;67.10;;;;;;2372164;56;21093;-75
2022/01/30 06:00:27;;;;;;;40.25;7.00;;;7.40;66.90;;;;;;2624516;52;21085;-75
2022/01/30 06:02:55;;;;;;;36.42;6.57;;;7.40;67.10;;;;;;2371467;56;21108;-74
2022/01/30 06:05:23;;;;;;;33.05;5.65;;;7.40;67.10;;;;;;2372270;56;21104;-75
2022/01/30 06:07:52;;;;;;;28.25;5.15;;;7.50;66.40;;;;;;2365550;56;21124;-74
2022/01/30 06:10:21;;;;;;;31.10;5.47;;;7.50;66.50;;;;;;2371661;56;21025;-75
2022/01/30 06:12:48;;;;;;;30.92;5.25;;;7.50;66.60;;;;;;2371940;56;21559;-74
2022/01/30 06:15:16;;;;;;;35.45;6.18;;;7.50;67.30;;;;;;2624199;52;21081;-74
2022/01/30 06:17:44;;;;;;;33.97;6.25;;;7.50;67.20;;;;;;2371753;56;21539;-74
2022/01/30 06:20:13;;;;;;;43.08;7.10;;;7.40;67.20;;;;;;2371586;56;21049;-74
2022/01/30 06:22:40;;;;;;;36.58;5.95;;;7.50;67.40;;;;;;2608254;52;21118;-74
2022/01/30 06:25:09;;;;;;;25.52;5.20;;;7.40;67.10;;;;;;2357495;57;21130;-74
2022/01/30 06:27:37;;;;;;;39.58;6.15;;;7.50;67.40;;;;;;2357768;56;21050;-77
2022/01/30 06:30:07;;;;;;;29.20;5.00;;;7.50;67.20;;;;;;2357092;57;21344;-74
2022/01/30 06:32:35;;;;;;;32.30;6.30;;;7.50;67.00;;;;;;2355802;56;21106;-74
2022/01/30 06:35:02;;;;;;;34.47;6.55;;;7.50;66.80;;;;;;2357492;57;21066;-75
2022/01/30 06:37:31;;;;;;;34.88;6.68;;;7.50;67.30;;;;;;2357247;57;21113;-75
2022/01/30 06:39:59;;;;;;;34.47;6.55;;;7.50;67.40;;;;;;2357055;57;21133;-74
2022/01/30 06:42:28;;;;;;;27.45;4.90;;;7.50;67.10;;;;;;2606900;53;21023;-75
2022/01/30 06:44:56;;;;;;;31.92;5.10;;;7.60;67.10;;;;;;2357599;57;21121;-75
2022/01/30 06:47:23;;;;;;;37.05;6.28;;;7.60;66.40;;;;;;2605703;52;21047;-74
2022/01/30 06:49:51;;;;;;;31.92;5.65;;;7.60;66.90;;;;;;2356672;57;21051;-74
2022/01/30 06:52:18;;;;;;;34.80;5.75;;;7.60;66.70;;;;;;2357523;57;21110;-75
2022/01/30 06:54:45;;;;;;;39.70;5.37;;;7.60;66.30;;;;;;2606594;53;21101;-74
2022/01/30 06:57:12;;;;;;;34.88;6.53;;;7.60;66.80;;;;;;2356841;57;21616;-74
2022/01/30 06:59:39;;;;;;;28.30;5.07;;;7.50;67.20;;;;;;2355598;57;21059;-75
2022/01/30 07:02:09;;;;;;;20.35;4.68;;;7.50;66.70;;;;;;2357144;57;21526;-74
2022/01/30 07:04:36;;;;;;;29.60;6.22;;;7.50;66.90;;;;;;2357450;57;21082;-74
2022/01/30 07:07:04;;;;;;;30.00;5.15;;;7.50;66.90;;;;;;2357134;57;21046;-74
2022/01/30 07:09:31;;;;;;;31.15;6.62;;;7.50;66.90;;;;;;2356468;56;21182;-74
2022/01/30 07:11:59;;;;;;;34.05;6.18;;;7.40;67.10;;;;;;2357052;56;21134;-74
2022/01/30 07:14:26;;;;;;;34.67;5.95;;;7.40;67.40;;;;;;2356955;57;21672;-75
2022/01/30 07:16:54;;;;;;;30.50;7.00;;;7.40;67.70;;;;;;2356855;57;21122;-75
2022/01/30 07:19:21;;;;;;;40.92;6.05;;;7.40;67.20;;;;;;2356318;57;22550;-74
2022/01/30 07:21:48;;;;;;;43.92;6.82;;;7.50;66.70;;;;;;2356956;57;21104;-74
2022/01/30 07:24:16;;;;;;;39.83;5.93;;;7.50;66.80;;;;;;2357096;57;21031;-74
2022/01/30 07:26:43;;;;;;;48.50;8.23;;;7.60;66.70;;;;;;2356059;57;21062;-74
2022/01/30 07:29:11;;;;;;;48.53;6.12;;;7.50;66.40;;;;;;2357035;56;21122;-74
2022/01/30 07:31:38;;;;;;;44.72;6.90;;;7.60;66.30;;;;;;2357361;57;21047;-74
2022/01/30 07:34:06;;;;;;;35.25;6.45;;;7.60;66.20;;;;;;2357224;57;21054;-74
2022/01/30 07:36:35;;;;;;;33.78;6.47;;;7.60;66.00;;;;;;2357197;57;21549;-74
2022/01/30 07:39:05;;;;;;;34.90;5.87;;;7.60;66.00;;;;;;2606650;52;21549;-74
2022/01/30 07:41:35;;;;;;;52.75;7.60;;;7.60;65.40;;;;;;2351775;57;21135;-75
2022/01/30 07:44:03;;;;;;;40.78;6.45;;;7.60;65.80;;;;;;2357426;57;21644;-74
2022/01/30 07:46:30;;;;;;;39.15;6.78;;;7.60;65.70;;;;;;2356882;56;21129;-74
2022/01/30 07:49:17;;;;;;;35.95;5.47;;;7.60;65.90;;;;;;2334583;57;21551;-75
2022/01/30 07:51:44;;;;;;;36.53;8.18;;;7.70;66.20;;;;;;2351821;57;21045;-75
2022/01/30 07:54:12;;;;;;;43.65;6.47;;;7.70;66.10;;;;;;2352894;57;21052;-74
2022/01/30 07:56:39;;;;;;;55.08;9.23;;;7.70;67.20;;;;;;2352905;57;21123;-74
2022/01/30 07:59:06;;;;;;;41.85;8.68;;;7.60;67.00;;;;;;2351187;56;21048;-74
2022/01/30 08:01:34;;;;;;;40.17;7.03;;;7.60;67.20;;;;;;2380340;56;21127;-74
2022/01/30 08:04:01;;;;;;;37.53;7.05;;;7.50;66.30;;;;;;2380159;56;21022;-73
2022/01/30 08:06:28;;;;;;;47.75;7.43;;;7.60;66.40;;;;;;2380479;56;21102;-74
2022/01/30 08:08:56;;;;;;;27.30;6.20;;;7.60;65.60;;;;;;2379799;56;21034;-74
2022/01/30 08:11:23;;;;;;;39.63;7.47;;;7.60;65.30;;;;;;2380576;56;21022;-74
2022/01/30 08:13:50;;;;;;;39.88;7.47;;;7.50;64.10;;;;;;2380008;56;21209;-73
2022/01/30 08:16:18;;;;;;;47.30;7.68;;;7.50;64.00;;;;;;2380347;56;21576;-73
2022/01/30 08:18:46;;;;;;;45.28;7.82;;;7.50;64.40;;;;;;2379943;56;21708;-74
2022/01/30 08:21:13;;;;;;;42.17;8.40;;;7.60;63.50;;;;;;2634769;52;21034;-73
2022/01/30 08:23:40;;;;;;;55.12;7.30;;;7.60;63.40;;;;;;2380284;56;21051;-73
2022/01/30 08:26:08;;;;;;;47.45;6.78;;;7.60;63.30;;;;;;2380336;56;21031;-73
2022/01/30 08:28:35;;;;;;;41.72;6.90;;;7.60;63.20;;;;;;2380136;56;21117;-74
2022/01/30 08:31:02;;;;;;;42.25;7.25;;;7.80;62.70;;;;;;2380000;56;21101;-74
2022/01/30 08:33:29;;;;;;;36.58;7.37;;;7.80;62.20;;;;;;2380190;56;21094;-73
2022/01/30 08:35:57;;;;;;;42.38;6.82;;;7.80;62.00;;;;;;2380440;56;21629;-73
2022/01/30 08:38:24;;;;;;;34.65;7.62;;;7.80;62.30;;;;;;2380047;56;21077;-74
2022/01/30 08:40:51;;;;;;;51.67;7.78;;;7.80;61.30;;;;;;2378927;56;21077;-72
2022/01/30 08:43:21;;;;;;;32.67;6.25;;;7.80;61.40;;;;;;2380183;56;21030;-73
2022/01/30 08:45:50;;;;;;;42.80;6.82;;;7.80;61.00;;;;;;2380382;56;21050;-72
2022/01/30 08:48:17;;;;;;;32.95;6.28;;;7.90;61.70;;;;;;2378670;56;21364;-72
2022/01/30 08:50:45;;;;;;;38.33;6.97;;;7.80;59.80;;;;;;2378287;56;21050;-72
2022/01/30 08:53:14;;;;;;;45.70;8.15;;;7.80;60.20;;;;;;2380481;56;21078;-72
2022/01/30 08:55:41;;;;;;;39.03;6.45;;;7.80;59.60;;;;;;2379779;56;21058;-72
2022/01/30 08:58:09;;;;;;;44.55;7.30;;;7.80;59.30;;;;;;2380501;56;21130;-71
2022/01/30 09:00:37;;;;;;;42.53;6.85;;;7.80;59.10;;;;;;2633206;52;21082;-72
2022/01/30 09:03:05;;;;;;;38.83;7.78;;;7.90;58.70;;;;;;2380362;56;21098;-72
2022/01/30 09:05:34;;;;;;;48.35;8.07;;;7.90;58.70;;;;;;2380186;56;21023;-73
2022/01/30 09:08:04;;;;;;;47.50;7.28;;;7.90;58.70;;;;;;2380404;56;21106;-72
2022/01/30 09:10:32;;;;;;;54.88;9.27;;;7.80;58.80;;;;;;2380037;56;21054;-72
2022/01/30 09:12:59;;;;;;;56.22;7.55;;;7.80;59.20;;;;;;2634666;52;21078;-72
2022/01/30 09:15:27;;;;;;;43.58;8.35;;;7.80;58.70;;;;;;2380535;56;21093;-72
2022/01/30 09:17:57;;;;;;;36.42;6.22;;;7.80;59.10;;;;;;2380195;56;21102;-72
2022/01/30 09:20:25;;;;;;;49.20;7.50;;;7.90;59.50;;;;;;2379822;56;21319;-72
2022/01/30 09:22:53;;;;;;;46.90;8.90;;;7.90;59.20;;;;;;2380081;56;21077;-73
2022/01/30 09:25:21;;;;;;;35.40;6.60;;;7.90;59.30;;;;;;2379980;56;21042;-72
2022/01/30 09:27:48;;;;;;;53.55;9.00;;;7.90;59.80;;;;;;2635197;52;21018;-72
2022/01/30 09:30:16;;;;;;;44.33;8.18;;;7.90;59.60;;;;;;2379561;56;21050;-73
2022/01/30 09:32:43;;;;;;;60.28;7.78;;;7.90;59.80;;;;;;2380347;56;21118;-73
2022/01/30 09:35:12;;;;;;;46.72;8.63;;;7.90;60.00;;;;;;2380081;56;21098;-73
2022/01/30 09:37:39;;;;;;;33.60;8.18;;;7.90;59.50;;;;;;2634719;52;21172;-72
2022/01/30 09:40:08;;;;;;;38.42;6.78;;;7.90;60.70;;;;;;2377524;56;21042;-74
2022/01/30 09:42:36;;;;;;;37.00;6.30;;;7.90;59.40;;;;;;2379585;56;21166;-73
2022/01/30 09:45:05;;;;;;;43.35;8.32;;;8.00;60.30;;;;;;2379015;56;21034;-74
2022/01/30 09:47:33;;;;;;;44.42;7.60;;;8.00;59.40;;;;;;2380085;56;21109;-74
2022/01/30 09:50:02;;;;;;;55.60;8.65;;;7.90;58.40;;;;;;2376844;56;21100;-73
2022/01/30 09:52:29;;;;;;;40.20;5.95;;;7.90;59.30;;;;;;2380405;56;21038;-77
2022/01/30 09:54:56;;;;;;;39.10;7.00;;;7.90;58.40;;;;;;2380136;56;22322;-76
2022/01/30 09:57:23;;;;;;;45.33;8.32;;;7.90;58.90;;;;;;2380229;56;21053;-76
2022/01/30 09:59:51;;;;;;;53.05;8.48;;;7.90;58.90;;;;;;2379599;56;21133;-74
2022/01/30 10:02:20;;;;;;;47.88;8.05;;;7.90;59.00;;;;;;2634407;52;21095;-72
2022/01/30 10:04:48;;;;;;;38.75;7.32;;;7.90;59.10;;;;;;2380271;56;21038;-73
2022/01/30 10:07:17;;;;;;;44.92;7.80;;;8.00;59.30;;;;;;2380159;56;21018;-72
2022/01/30 10:09:46;;;;;;;50.90;6.75;;;8.00;59.60;;;;;;2379917;56;21038;-72
2022/01/30 10:12:16;;;;;;;32.30;5.45;;;8.10;59.00;;;;;;2559216;52;21043;-76
2022/01/30 10:15:02;;;;;;;51.70;8.77;;;8.10;59.60;;;;;;2380019;56;21026;-75
2022/01/30 10:17:33;;;;;;;34.05;6.10;;;8.10;58.70;;;;;;2380226;56;21015;-77
2022/01/30 10:20:07;;;;;;;36.63;6.18;;;8.10;58.90;;;;;;2379602;56;21118;-76
2022/01/30 10:22:37;;;;;;;33.88;6.62;;;8.00;58.00;;;;;;2380356;56;21023;-76
2022/01/30 10:25:05;;;;;;;44.28;7.75;;;8.00;57.60;;;;;;2380150;56;21066;-77
2022/01/30 10:27:33;;;;;;;45.47;7.20;;;8.00;57.90;;;;;;2380201;56;21516;-75
2022/01/30 10:30:03;;;;;;;47.85;7.20;;;7.90;57.10;;;;;;2380084;56;21019;-79
2022/01/30 10:32:31;;;;;;;35.80;7.10;;;7.90;57.70;;;;;;2634873;52;21014;-75
2022/01/30 10:35:01;;;;;;;44.42;7.00;;;7.90;57.80;;;;;;2380365;56;21015;-76
2022/01/30 10:37:28;;;;;;;45.60;7.05;;;7.90;57.90;;;;;;2379461;56;21006;-76
2022/01/30 10:40:10;;;;;;;32.25;6.47;;;7.90;57.70;;;;;;2379941;56;21034;-76
2022/01/30 10:42:41;;;;;;;31.10;6.12;;;7.90;57.30;;;;;;2380079;56;21109;-75
2022/01/30 10:45:12;;;;;;;34.85;6.28;;;7.90;58.20;;;;;;2380218;56;21010;-76
2022/01/30 10:47:40;;;;;;;32.97;5.80;;;8.00;58.50;;;;;;2380389;56;21129;-76
2022/01/30 10:50:14;;;;;;;26.35;5.53;;;8.00;58.30;;;;;;2376679;56;21022;-76
2022/01/30 10:52:57;;;;;;;43.67;6.50;;;8.10;57.80;;;;;;2379601;56;21528;-76
2022/01/30 10:58:22;;;;;;;35.00;6.70;;;8.10;57.10;;;;;;2355155;57;22066;-75
2022/01/30 11:00:53;;;;;;;31.00;5.78;;;8.00;57.60;;;;;;2368225;56;21090;-75
2022/01/30 11:03:38;;;;;;;40.67;7.28;;;8.00;57.00;;;;;;2374523;56;21055;-75
2022/01/30 11:06:09;;;;;;;39.22;6.53;;;8.00;57.30;;;;;;2627997;52;21137;-75
2022/01/30 11:08:40;;;;;;;54.30;6.82;;;8.00;57.40;;;;;;2374053;56;21051;-75
2022/01/30 11:11:16;;;;;;;41.05;7.10;;;8.00;56.80;;;;;;2373438;56;21067;-75
2022/01/30 11:14:15;;;;;;;34.22;6.47;;;7.90;56.70;;;;;;2374653;56;21105;-74
2022/01/30 11:19:44;;;;;;;30.08;5.72;;;8.00;57.00;;;;;;2318558;56;21055;-75
2022/01/30 11:22:14;;;;;;;31.23;6.20;;;8.00;56.10;;;;;;2374697;56;21027;-75
2022/01/30 11:24:45;;;;;;;42.30;6.55;;;8.10;56.00;;;;;;2627608;52;21035;-75
2022/01/30 11:27:13;;;;;;;36.97;6.68;;;8.10;55.50;;;;;;2374928;56;21070;-75
2022/01/30 11:29:41;;;;;;;34.80;7.32;;;8.10;56.40;;;;;;2374054;56;21047;-75
2022/01/30 11:32:10;;;;;;;29.40;6.55;;;8.10;55.80;;;;;;2374251;56;21050;-75
2022/01/30 11:34:39;;;;;;;45.40;6.60;;;8.10;56.20;;;;;;2374612;56;21063;-75
2022/01/30 11:37:08;;;;;;;36.40;6.65;;;8.10;55.90;;;;;;2374199;56;21137;-75
2022/01/30 11:39:41;;;;;;;46.58;7.35;;;8.10;56.00;;;;;;2374098;56;21043;-75
2022/01/30 11:42:13;;;;;;;44.97;8.05;;;8.10;56.30;;;;;;2374183;56;21153;-74
2022/01/30 11:44:40;;;;;;;50.90;7.45;;;8.20;57.40;;;;;;2374098;56;21121;-74
2022/01/30 11:47:24;;;;;;;58.55;7.35;;;8.30;56.80;;;;;;2374421;56;21051;-74
2022/01/30 11:50:06;;;;;;;50.97;7.70;;;8.30;57.40;;;;;;2627335;52;21560;-75
2022/01/30 11:52:57;;;;;;;44.40;7.82;;;8.30;56.70;;;;;;2627649;52;21105;-75
2022/01/30 11:55:49;;;;;;;40.60;7.65;;;8.30;57.50;;;;;;2374477;56;21099;-75
2022/01/30 11:58:58;;;;;;;49.30;7.80;;;8.20;57.20;;;;;;2374464;56;21046;-78
2022/01/30 12:01:36;;;;;;;34.85;7.10;;;8.20;58.50;;;;;;2375652;56;21054;-77
2022/01/30 12:04:25;;;;;;;42.03;7.60;;;8.30;58.50;;;;;;2374703;56;21102;-76
2022/01/30 12:06:52;;;;;;;28.55;5.95;;;8.40;57.90;;;;;;2374853;56;21042;-76
2022/01/30 12:09:29;;;;;;;40.25;6.65;;;8.40;57.70;;;;;;2373670;56;21054;-77
2022/01/30 12:12:08;;;;;;;39.05;7.30;;;8.50;57.50;;;;;;2373562;56;21023;-76
2022/01/30 12:14:54;;;;;;;39.13;7.32;;;8.50;56.90;;;;;;2373489;56;21118;-77
2022/01/30 12:17:57;;;;;;;74.50;8.88;;;8.50;56.60;;;;;;2624949;52;21122;-77
2022/01/30 12:20:25;;;;;;;24.52;5.25;;;8.40;56.10;;;;;;2371849;56;21113;-77
2022/01/30 12:22:53;;;;;;;32.05;6.25;;;8.40;56.90;;;;;;2373396;56;21054;-77
2022/01/30 12:25:34;;;;;;;30.67;5.43;;;8.40;55.90;;;;;;2373770;56;21186;-77
2022/01/30 12:28:12;;;;;;;30.40;5.90;;;8.40;55.50;;;;;;2374102;56;21055;-77
2022/01/30 12:30:49;;;;;;;35.97;6.87;;;8.40;55.40;;;;;;2373793;56;21035;-78
2022/01/30 12:33:44;;;;;;;36.10;5.95;;;8.40;55.50;;;;;;2374070;56;21047;-77
2022/01/30 12:36:18;;;;;;;30.08;6.50;;;8.40;55.90;;;;;;2373580;56;21134;-76
2022/01/30 12:38:45;;;;;;;35.42;5.47;;;8.40;55.80;;;;;;2626516;52;21127;-76
2022/01/30 12:41:20;;;;;;;40.85;6.62;;;8.50;56.60;;;;;;2373180;56;21098;-76
2022/01/30 12:43:52;;;;;;;37.03;6.32;;;8.50;55.60;;;;;;2373768;56;21113;-76
2022/01/30 12:46:19;;;;;;;27.00;5.40;;;8.50;55.00;;;;;;2373693;56;21509;-76
2022/01/30 12:49:10;;;;;;;26.58;5.32;;;8.30;54.40;;;;;;2626573;52;21142;-76
2022/01/30 12:51:40;;;;;;;32.80;5.20;;;8.30;56.20;;;;;;2372399;56;21023;-77
2022/01/30 12:54:08;;;;;;;36.70;5.60;;;8.40;55.80;;;;;;2373289;56;21209;-76
2022/01/30 12:56:36;;;;;;;25.27;4.78;;;8.40;55.60;;;;;;2373258;56;21094;-76
2022/01/30 12:59:08;;;;;;;34.40;6.18;;;8.40;56.10;;;;;;2372891;56;21059;-76
2022/01/30 13:01:38;;;;;;;30.55;5.68;;;8.40;55.30;;;;;;2373541;56;21660;-77
2022/01/30 13:04:08;;;;;;;31.80;5.10;;;8.40;55.20;;;;;;2373753;56;21522;-77
2022/01/30 13:06:38;;;;;;;24.77;5.87;;;8.40;55.10;;;;;;2373693;56;21047;-77
2022/01/30 13:09:06;;;;;;;30.70;5.97;;;8.30;55.70;;;;;;2373532;56;21604;-77
2022/01/30 13:11:34;;;;;;;21.73;4.68;;;8.30;55.50;;;;;;2373932;56;21035;-77
2022/01/30 13:14:05;;;;;;;29.67;6.45;;;8.40;55.30;;;;;;2373695;56;21057;-78
2022/01/30 13:16:36;;;;;;;24.23;5.60;;;8.40;55.70;;;;;;2375367;56;21110;-78
2022/01/30 13:19:06;;;;;;;25.12;5.12;;;8.50;56.20;;;;;;2374756;56;21215;-78
2022/01/30 13:21:35;;;;;;;25.40;5.37;;;8.50;55.50;;;;;;2627620;52;21038;-77
2022/01/30 13:24:04;;;;;;;25.83;5.07;;;8.40;56.00;;;;;;2373909;56;21118;-77
2022/01/30 13:26:33;;;;;;;20.25;4.93;;;8.40;54.80;;;;;;2373414;56;21134;-77
2022/01/30 13:29:03;;;;;;;25.85;5.10;;;8.40;55.30;;;;;;2373443;56;21043;-76
2022/01/30 13:31:32;;;;;;;27.30;5.45;;;8.40;55.70;;;;;;2627011;52;21078;-77
2022/01/30 13:34:17;;;;;;;28.52;5.43;;;8.40;55.80;;;;;;2373784;56;21031;-77
2022/01/30 13:36:54;;;;;;;19.12;4.15;;;8.40;55.40;;;;;;2373390;56;21310;-77
2022/01/30 13:39:32;;;;;;;24.85;4.97;;;8.50;56.00;;;;;;2373434;56;21074;-76
2022/01/30 13:42:27;;;;;;;29.15;5.68;;;8.50;56.30;;;;;;2372923;56;21110;-77
2022/01/30 13:45:06;;;;;;;29.08;5.87;;;8.50;56.60;;;;;;2372429;56;21294;-76